Terminal Aerodrome Forecast
Issued by NWS Corpus Christi, TX

Home | Current Version | Previous Version | Text Only | Print | Product List | Glossary On
Versions: 1 2 3 4 5 6 7 8 9 10 11 12 13 14 15 16 17
549
FTUS44 KCRP 241731
TAFCRP
TAF
KCRP 241731Z 2418/2518 32008KT P6SM SKC
     FM251400 17015G22KT P6SM FEW035=

USA.gov is the U.S. government's official web portal to all federal, state and local government web resources and services.